ΕΜΥ, Εθνική Μετεωρολογική Υπηρεσία - Δελτία Καιρού, Προγνώσεις

ΑΕΡΟΝΑΥΤΙΛΙΑ

GREEK AIRPORTS CODES

LGKC 311250Z 06004KT 9999 FEW018 BKN025 10/08 Q1011=

EUROPEAN AIRPORTS CODES

LFPO 311500Z 26011KT 9999 FEW021 BKN260 09/03 Q1028 NOSIG=